Terminal Aerodrome Forecast
Issued by NWS

Home | Current Version | Previous Version | Text Only | Print | Product List | Glossary On
Versions: 1 2 3 4 5 6 7 8 9 10 11 12 13
000
FTUS46 KOTX 260526
TAFCOE
TAF
KCOE 260526Z 2606/2706 07004KT P6SM SCT120 BKN250
     FM261000 05005KT P6SM SCT100
     FM261600 06011KT P6SM FEW100
     FM261900 25006KT P6SM FEW090 FEW200
     FM270200 17003KT P6SM FEW100 BKN150
      AMD LTD TO CLD VIS AND WIND=

USA.gov is the U.S. government's official web portal to all federal, state and local government web resources and services.